Castle Hill, Maine
Current Conditions -  °F | °C
As of 7:55 PM on Friday 24 Oct 2014 (Local Time) from KPQI Reporting Station
Overcast Overcast  
Wind Chill: 37°   Ceiling: 3400
Heat Index: 43°   Visibility: 10mi
Dew Point: 37°   Wind: 12mph
Humidity: 81%   Direction: 360°N
Pressure: 29.68"   Gusts: NA
Location:  46.5489°N, 68.172°W
Report Text: KPQI 242355Z AUTO 36010KT 10SM OVC034 06/03 A2968 RMK AO1 P0003 60009 10060 20040 400700040 57003
Loading
Personal Weather Stations






























Interactive Weather Map
Tropical Storm Tracking
New forecast layout! Learn more

10-Day Weather Forecast

Advertisements
Track Severe Weather on mobile